createdAt,value
2022-10-13T00:00:26.465Z,97.18
2022-10-13T00:00:58.482Z,76.40
2022-10-13T00:01:32.899Z,49.67
2022-10-13T00:02:05.078Z,56.28
2022-10-13T00:02:37.853Z,87.68
2022-10-13T00:03:10.322Z,137.25
2022-10-13T00:03:47.052Z,55.92
2022-10-13T00:04:24.833Z,41.33
2022-10-13T00:04:58.890Z,41.53
2022-10-13T00:05:33.440Z,54.38
2022-10-13T00:06:10.810Z,54.38
2022-10-13T00:06:42.696Z,80.43
2022-10-13T00:07:14.766Z,43.25
2022-10-13T00:07:49.381Z,172.85
2022-10-13T00:08:22.575Z,59.83
2022-10-13T00:08:55.636Z,98.13
2022-10-13T00:09:27.789Z,42.35
2022-10-13T00:10:00.864Z,48.38
2022-10-13T00:10:37.090Z,46.08
2022-10-13T00:11:16.914Z,59.58
2022-10-13T00:11:51.860Z,169.18
2022-10-13T00:12:23.904Z,135.70
2022-10-13T00:12:55.914Z,50.72
2022-10-13T00:13:28.732Z,84.28
2022-10-13T00:14:03.458Z,60.60
2022-10-13T00:14:35.750Z,61.88
2022-10-13T00:15:08.811Z,59.80
2022-10-13T00:15:43.070Z,39.83
2022-10-13T00:16:17.350Z,41.13
2022-10-13T00:16:49.162Z,60.08
2022-10-13T00:17:21.160Z,96.90
2022-10-13T00:17:53.217Z,57.67
2022-10-13T00:18:25.416Z,107.03
2022-10-13T00:19:00.417Z,101.63
2022-10-13T00:19:33.392Z,214.23
2022-10-13T00:20:06.474Z,50.97
2022-10-13T00:20:49.771Z,55.97
2022-10-13T00:21:24.503Z,74.32
2022-10-13T00:21:56.508Z,89.13
2022-10-13T00:22:28.831Z,55.25
2022-10-13T00:23:00.877Z,74.60
2022-10-13T00:23:34.192Z,114.85
2022-10-13T00:24:09.503Z,57.17
2022-10-13T00:24:41.629Z,44.60
2022-10-13T00:25:14.572Z,120.15
2022-10-13T00:25:49.681Z,97.45
2022-10-13T00:26:25.741Z,60.10
2022-10-13T00:26:57.790Z,42.90
2022-10-13T00:27:33.010Z,31.52
2022-10-13T00:28:12.583Z,49.58
2022-10-13T00:28:49.739Z,45.35
2022-10-13T00:29:23.536Z,76.47
2022-10-13T00:29:55.598Z,38.33
2022-10-13T00:30:27.633Z,41.03
2022-10-13T00:30:59.794Z,49.33
2022-10-13T00:31:33.252Z,36.78
2022-10-13T00:32:05.439Z,88.50
2022-10-13T00:32:37.385Z,34.00
2022-10-13T00:33:11.686Z,40.03
2022-10-13T00:33:43.916Z,34.80
2022-10-13T00:34:19.428Z,83.07
2022-10-13T00:34:51.640Z,86.78
2022-10-13T00:35:27.269Z,136.05
2022-10-13T00:35:59.277Z,41.38
2022-10-13T00:36:31.483Z,59.30
2022-10-13T00:37:04.703Z,45.10
2022-10-13T00:37:39.275Z,43.35
2022-10-13T00:38:12.295Z,32.55
2022-10-13T00:38:47.402Z,33.75
2022-10-13T00:39:22.099Z,123.43
2022-10-13T00:39:54.227Z,47.38
2022-10-13T00:40:26.938Z,37.47
2022-10-13T00:40:58.949Z,44.30
2022-10-13T00:41:30.962Z,95.45
2022-10-13T00:42:03.632Z,76.97
2022-10-13T00:42:35.681Z,67.40
2022-10-13T00:43:16.977Z,99.03
2022-10-13T00:44:11.968Z,38.53
2022-10-13T00:45:07.334Z,70.80
2022-10-13T00:45:41.227Z,32.58
2022-10-13T00:46:14.301Z,42.88
2022-10-13T00:46:46.341Z,32.33
2022-10-13T00:47:22.217Z,70.97
2022-10-13T00:48:03.269Z,68.57
2022-10-13T00:48:35.312Z,57.60
2022-10-13T00:49:11.794Z,69.10
2022-10-13T00:49:45.489Z,53.20
2022-10-13T00:50:21.418Z,53.38
2022-10-13T00:50:59.370Z,54.70
2022-10-13T00:51:38.114Z,32.33
2022-10-13T00:52:10.258Z,80.35
2022-10-13T00:52:44.689Z,30.15
2022-10-13T00:53:18.336Z,91.63
2022-10-13T00:53:50.705Z,137.45
2022-10-13T00:54:25.929Z,59.22
2022-10-13T00:54:59.960Z,93.68
2022-10-13T00:55:34.988Z,36.67
2022-10-13T00:56:10.159Z,63.75
2022-10-13T00:56:43.048Z,75.57
2022-10-13T00:57:15.941Z,51.13
2022-10-13T00:57:54.961Z,59.83
2022-10-13T00:58:36.502Z,69.80
2022-10-13T00:59:23.164Z,83.03
2022-10-13T00:59:55.757Z,39.75
2022-10-13T01:00:28.720Z,36.03
2022-10-13T01:01:05.015Z,36.22
2022-10-13T01:01:38.139Z,45.90
2022-10-13T01:02:12.514Z,31.30
2022-10-13T01:02:44.658Z,34.88
2022-10-13T01:03:22.634Z,32.55
2022-10-13T01:03:54.782Z,45.33
2022-10-13T01:04:37.249Z,36.83
2022-10-13T01:05:09.554Z,33.67
2022-10-13T01:05:42.787Z,50.88
2022-10-13T01:06:19.800Z,49.72
2022-10-13T01:06:56.693Z,25.30
2022-10-13T01:07:29.321Z,52.85
2022-10-13T01:08:02.241Z,33.03
2022-10-13T01:08:34.750Z,29.63
2022-10-13T01:09:06.904Z,35.55
2022-10-13T01:09:39.230Z,44.05
2022-10-13T01:10:11.791Z,35.40
2022-10-13T01:11:20.617Z,24.33
2022-10-13T01:12:04.571Z,24.65
2022-10-13T01:13:09.655Z,44.53
2022-10-13T01:14:13.473Z,50.53
2022-10-13T01:14:56.532Z,30.83
2022-10-13T01:15:38.651Z,25.58
2022-10-13T01:16:45.740Z,42.72
2022-10-13T01:17:36.159Z,27.73
2022-10-13T01:18:22.436Z,30.80
2022-10-13T01:19:11.188Z,32.03
2022-10-13T01:19:57.610Z,30.65
2022-10-13T01:21:08.900Z,46.08
2022-10-13T01:22:01.621Z,37.28
2022-10-13T01:23:01.672Z,27.45
2022-10-13T01:24:18.228Z,33.47
2022-10-13T01:25:16.461Z,29.05
2022-10-13T01:26:25.713Z,30.63
2022-10-13T01:27:19.540Z,37.72
2022-10-13T01:28:09.108Z,36.92
2022-10-13T01:29:13.514Z,31.55
2022-10-13T01:30:08.740Z,43.40
2022-10-13T01:30:52.219Z,81.57
2022-10-13T01:31:43.051Z,52.03
2022-10-13T01:32:33.027Z,44.92
2022-10-13T01:33:18.188Z,30.83
2022-10-13T01:34:03.953Z,45.90
2022-10-13T01:35:18.028Z,26.90
2022-10-13T01:36:00.037Z,47.33
2022-10-13T01:36:38.997Z,53.20
2022-10-13T01:37:35.221Z,34.17
2022-10-13T01:38:12.167Z,66.20
2022-10-13T01:39:01.267Z,40.85
2022-10-13T01:39:47.456Z,38.95
2022-10-13T01:40:51.526Z,30.83
2022-10-13T01:41:33.826Z,29.25
2022-10-13T01:42:18.566Z,37.47
2022-10-13T01:42:53.615Z,30.92
2022-10-13T01:43:31.089Z,46.92
2022-10-13T01:44:24.252Z,26.40
2022-10-13T01:45:04.082Z,45.42
2022-10-13T01:45:49.225Z,34.25
2022-10-13T01:46:29.764Z,48.22
2022-10-13T01:47:03.327Z,72.38
2022-10-13T01:47:37.438Z,34.83
2022-10-13T01:48:10.937Z,50.72
2022-10-13T01:48:51.808Z,36.10
2022-10-13T01:49:28.143Z,43.53
2022-10-13T01:50:01.626Z,33.80
2022-10-13T01:50:36.232Z,34.20
2022-10-13T01:51:15.540Z,36.95
2022-10-13T01:51:49.272Z,40.47
2022-10-13T01:52:25.605Z,35.03
2022-10-13T01:53:02.090Z,41.88
2022-10-13T01:53:35.364Z,40.08
2022-10-13T01:54:09.926Z,33.67
2022-10-13T01:54:52.177Z,63.10
2022-10-13T01:55:24.599Z,49.60
2022-10-13T01:56:00.104Z,47.88
2022-10-13T01:56:34.617Z,52.17
2022-10-13T01:57:31.353Z,46.45
2022-10-13T01:58:05.699Z,38.80
2022-10-13T01:58:38.441Z,40.28
2022-10-13T01:59:14.907Z,31.30
2022-10-13T01:59:47.043Z,30.48
2022-10-13T02:00:22.284Z,27.77
2022-10-13T02:01:06.489Z,28.58
2022-10-13T02:01:44.220Z,40.50
2022-10-13T02:02:27.048Z,34.63
2022-10-13T02:03:17.908Z,34.90
2022-10-13T02:04:10.322Z,56.22
2022-10-13T02:05:04.408Z,40.50
2022-10-13T02:05:49.691Z,40.53
2022-10-13T02:06:27.004Z,45.60
2022-10-13T02:07:07.604Z,33.97
2022-10-13T02:07:42.167Z,37.08
2022-10-13T02:08:25.243Z,30.92
2022-10-13T02:09:19.138Z,27.65
2022-10-13T02:10:01.001Z,38.42
2022-10-13T02:10:58.927Z,36.72
2022-10-13T02:11:30.817Z,38.38
2022-10-13T02:12:10.248Z,32.58
2022-10-13T02:13:24.934Z,37.10
2022-10-13T02:14:14.804Z,38.05
2022-10-13T02:14:48.515Z,34.60
2022-10-13T02:15:25.363Z,28.63
2022-10-13T02:16:00.663Z,31.25
2022-10-13T02:16:38.725Z,47.53
2022-10-13T02:17:11.663Z,44.83
2022-10-13T02:17:45.900Z,42.90
2022-10-13T02:18:21.377Z,38.83
2022-10-13T02:18:53.380Z,30.40
2022-10-13T02:19:25.449Z,36.33
2022-10-13T02:19:57.845Z,35.25
2022-10-13T02:20:32.052Z,32.88
2022-10-13T02:21:04.568Z,35.75
2022-10-13T02:21:36.949Z,30.10
2022-10-13T02:22:13.291Z,27.25
2022-10-13T02:22:47.684Z,29.70
2022-10-13T02:23:19.795Z,34.35
2022-10-13T02:23:51.820Z,35.05
2022-10-13T02:24:25.173Z,34.67
2022-10-13T02:24:57.076Z,36.83
2022-10-13T02:25:29.581Z,33.20
2022-10-13T02:26:03.922Z,49.97
2022-10-13T02:26:36.467Z,37.60
2022-10-13T02:27:11.581Z,34.42
2022-10-13T02:27:43.590Z,30.90
2022-10-13T02:28:15.937Z,34.13
2022-10-13T02:28:47.899Z,32.08
2022-10-13T02:29:19.828Z,31.25
2022-10-13T02:29:58.129Z,36.67
2022-10-13T02:30:34.338Z,32.97
2022-10-13T02:31:08.957Z,29.17
2022-10-13T02:31:42.286Z,33.97
2022-10-13T02:32:14.382Z,30.50
2022-10-13T02:32:46.332Z,30.38
2022-10-13T02:33:19.029Z,32.95
2022-10-13T02:33:50.876Z,32.95
2022-10-13T02:34:22.641Z,35.92
2022-10-13T02:34:54.381Z,27.17
2022-10-13T02:35:26.430Z,33.67
2022-10-13T02:35:58.340Z,31.92
2022-10-13T02:36:30.277Z,29.48
2022-10-13T02:37:02.462Z,32.15
2022-10-13T02:37:34.219Z,29.20
2022-10-13T02:38:06.771Z,31.23
2022-10-13T02:38:38.531Z,29.95
2022-10-13T02:39:11.150Z,29.70
2022-10-13T02:39:43.074Z,27.00
2022-10-13T02:40:16.496Z,28.77
2022-10-13T02:40:48.222Z,29.75
2022-10-13T02:41:20.072Z,29.30
2022-10-13T02:41:51.909Z,31.65
2022-10-13T02:42:23.931Z,34.92
2022-10-13T02:43:00.590Z,31.73
2022-10-13T02:43:33.920Z,26.92
2022-10-13T02:44:06.916Z,30.10
2022-10-13T02:44:40.174Z,27.17
2022-10-13T02:45:12.016Z,30.23
2022-10-13T02:45:43.995Z,31.67
2022-10-13T02:46:15.987Z,31.00
2022-10-13T02:46:48.020Z,26.48
2022-10-13T02:47:19.911Z,23.98
2022-10-13T02:47:51.766Z,31.90
2022-10-13T02:48:23.549Z,36.80
2022-10-13T02:48:55.375Z,28.33
2022-10-13T02:49:30.868Z,26.65
2022-10-13T02:50:03.165Z,24.73
2022-10-13T02:50:35.132Z,24.38
2022-10-13T02:51:06.944Z,22.65
2022-10-13T02:51:40.354Z,22.60
2022-10-13T02:52:12.571Z,27.02
2022-10-13T02:52:46.986Z,23.60
2022-10-13T02:53:18.733Z,25.98
2022-10-13T02:53:50.623Z,24.42
2022-10-13T02:54:22.411Z,25.77
2022-10-13T02:54:54.261Z,25.05
2022-10-13T02:55:26.106Z,23.45
2022-10-13T02:56:01.415Z,22.60
2022-10-13T02:56:33.317Z,24.63
2022-10-13T02:57:05.137Z,22.30
2022-10-13T02:57:37.077Z,27.88
2022-10-13T02:58:09.109Z,25.92
2022-10-13T02:58:41.003Z,22.95
2022-10-13T02:59:12.903Z,23.75
2022-10-13T02:59:44.746Z,24.88
2022-10-13T03:00:16.800Z,22.35
2022-10-13T03:00:48.810Z,25.55
2022-10-13T03:01:20.802Z,24.90
2022-10-13T03:01:52.562Z,23.00
2022-10-13T03:02:26.496Z,22.98
2022-10-13T03:02:58.445Z,22.52
2022-10-13T03:03:30.260Z,23.00
2022-10-13T03:04:02.121Z,20.73
2022-10-13T03:04:34.219Z,21.15
2022-10-13T03:05:09.061Z,21.75
2022-10-13T03:05:40.996Z,20.45
2022-10-13T03:06:12.867Z,21.00
2022-10-13T03:06:44.731Z,23.67
2022-10-13T03:07:18.708Z,22.00
2022-10-13T03:07:50.559Z,22.15
2022-10-13T03:08:22.311Z,23.80
2022-10-13T03:08:54.249Z,23.25
2022-10-13T03:09:26.057Z,19.92
2022-10-13T03:09:57.820Z,18.55
2022-10-13T03:10:31.200Z,19.67
2022-10-13T03:11:03.048Z,19.98
2022-10-13T03:11:34.831Z,20.17
2022-10-13T03:12:07.096Z,20.80
2022-10-13T03:12:39.920Z,21.52
2022-10-13T03:13:11.887Z,21.90
2022-10-13T03:13:43.751Z,21.58
2022-10-13T03:14:15.643Z,20.55
2022-10-13T03:14:47.392Z,19.58
2022-10-13T03:15:19.199Z,20.67
2022-10-13T03:15:53.372Z,18.73
2022-10-13T03:16:25.332Z,20.65
2022-10-13T03:16:57.165Z,24.13
2022-10-13T03:17:28.970Z,20.48
2022-10-13T03:18:00.687Z,19.83
2022-10-13T03:18:32.684Z,21.52
2022-10-13T03:19:05.061Z,19.55
2022-10-13T03:19:37.037Z,20.17
2022-10-13T03:20:09.694Z,20.08
2022-10-13T03:20:41.836Z,17.75
2022-10-13T03:21:14.793Z,20.10
2022-10-13T03:21:46.632Z,18.02
2022-10-13T03:22:19.210Z,18.20
2022-10-13T03:22:51.255Z,19.98
2022-10-13T03:23:23.012Z,17.60
2022-10-13T03:23:54.862Z,19.45
2022-10-13T03:24:27.678Z,15.35
2022-10-13T03:24:59.862Z,17.42
2022-10-13T03:25:34.539Z,19.80
2022-10-13T03:26:06.582Z,17.10
2022-10-13T03:26:38.443Z,19.55
2022-10-13T03:27:10.855Z,17.90
2022-10-13T03:27:42.638Z,16.55
2022-10-13T03:28:14.543Z,18.52
2022-10-13T03:28:51.507Z,19.92
2022-10-13T03:29:23.372Z,17.20
2022-10-13T03:29:55.240Z,17.48
2022-10-13T03:30:27.550Z,18.90
2022-10-13T03:31:04.879Z,19.35
2022-10-13T03:31:36.717Z,18.92
2022-10-13T03:32:08.725Z,16.30
2022-10-13T03:32:40.802Z,20.45
2022-10-13T03:33:12.979Z,16.88
2022-10-13T03:33:45.723Z,18.35
2022-10-13T03:34:17.879Z,16.70
2022-10-13T03:34:50.684Z,16.85
2022-10-13T03:35:22.457Z,16.02
2022-10-13T03:35:54.234Z,15.20
2022-10-13T03:36:26.200Z,18.73
2022-10-13T03:36:58.048Z,18.80
2022-10-13T03:37:30.708Z,16.23
2022-10-13T03:38:02.559Z,17.13
2022-10-13T03:38:36.925Z,16.08
2022-10-13T03:39:09.053Z,15.90
2022-10-13T03:39:40.923Z,17.77
2022-10-13T03:40:13.464Z,16.05
2022-10-13T03:40:45.278Z,16.92
2022-10-13T03:41:18.470Z,16.33
2022-10-13T03:41:55.015Z,17.33
2022-10-13T03:42:26.810Z,15.75
2022-10-13T03:42:58.658Z,16.65
2022-10-13T03:43:30.377Z,15.23
2022-10-13T03:44:02.323Z,15.07
2022-10-13T03:44:34.844Z,15.45
2022-10-13T03:45:07.265Z,16.65
2022-10-13T03:45:41.218Z,20.42
2022-10-13T03:46:15.004Z,16.42
2022-10-13T03:46:47.395Z,17.15
2022-10-13T03:47:19.212Z,16.27
2022-10-13T03:47:51.046Z,18.33
2022-10-13T03:48:23.130Z,15.98
2022-10-13T03:48:55.211Z,18.60
2022-10-13T03:49:27.062Z,17.92
2022-10-13T03:49:58.833Z,18.65
2022-10-13T03:50:30.679Z,17.02
2022-10-13T03:51:10.990Z,17.85
2022-10-13T03:51:49.915Z,15.30
2022-10-13T03:52:22.876Z,17.60
2022-10-13T03:52:54.854Z,15.02
2022-10-13T03:53:26.773Z,18.00
2022-10-13T03:53:58.706Z,15.48
2022-10-13T03:54:30.632Z,15.20
2022-10-13T03:55:02.655Z,18.58
2022-10-13T03:55:34.701Z,15.70
2022-10-13T03:56:07.835Z,16.98
2022-10-13T03:56:47.535Z,17.60
2022-10-13T03:57:19.348Z,17.95
2022-10-13T03:57:51.220Z,18.10
2022-10-13T03:58:24.795Z,16.77
2022-10-13T03:59:00.168Z,17.83
2022-10-13T03:59:36.581Z,17.15
2022-10-13T04:00:10.768Z,16.70
2022-10-13T04:00:45.188Z,17.88
2022-10-13T04:01:17.111Z,15.77
2022-10-13T04:01:51.481Z,14.77
2022-10-13T04:02:23.928Z,16.27
2022-10-13T04:02:57.167Z,14.55
2022-10-13T04:03:29.285Z,16.05
2022-10-13T04:04:02.867Z,13.98
2022-10-13T04:04:35.371Z,14.52
2022-10-13T04:05:07.461Z,15.70
2022-10-13T04:05:40.120Z,16.27
2022-10-13T04:06:12.283Z,16.40
2022-10-13T04:06:44.307Z,15.93
2022-10-13T04:07:16.666Z,18.35
2022-10-13T04:07:48.477Z,14.82
2022-10-13T04:08:23.432Z,16.52
2022-10-13T04:08:55.617Z,15.23
2022-10-13T04:09:27.602Z,14.95
2022-10-13T04:09:59.444Z,15.10
2022-10-13T04:10:31.351Z,15.65
2022-10-13T04:11:07.724Z,14.98
2022-10-13T04:11:40.219Z,15.55
2022-10-13T04:12:13.599Z,15.05
2022-10-13T04:12:49.071Z,15.77
2022-10-13T04:13:20.879Z,13.68
2022-10-13T04:13:57.878Z,15.40
2022-10-13T04:14:29.670Z,15.23
2022-10-13T04:15:07.846Z,14.75
2022-10-13T04:15:40.340Z,13.65
2022-10-13T04:16:15.662Z,15.02
2022-10-13T04:16:47.697Z,14.07
2022-10-13T04:17:19.535Z,15.90
2022-10-13T04:17:51.319Z,13.77
2022-10-13T04:18:23.162Z,16.65
2022-10-13T04:19:03.613Z,13.50
2022-10-13T04:19:35.475Z,14.73
2022-10-13T04:20:11.236Z,15.25
2022-10-13T04:20:42.989Z,15.07
2022-10-13T04:21:16.562Z,17.55
2022-10-13T04:21:48.980Z,14.35
2022-10-13T04:22:20.982Z,15.32
2022-10-13T04:22:52.976Z,14.60
2022-10-13T04:23:25.075Z,13.82
2022-10-13T04:23:58.541Z,14.07
2022-10-13T04:24:31.118Z,14.45
2022-10-13T04:25:03.992Z,14.13
2022-10-13T04:25:37.210Z,15.75
2022-10-13T04:26:16.677Z,13.73
2022-10-13T04:26:48.598Z,13.05
2022-10-13T04:27:23.468Z,14.38
2022-10-13T04:27:55.294Z,14.30
2022-10-13T04:28:27.153Z,14.95
2022-10-13T04:29:00.012Z,13.93
2022-10-13T04:29:31.843Z,13.15
2022-10-13T04:30:06.071Z,13.65
2022-10-13T04:30:38.004Z,14.10
2022-10-13T04:31:09.956Z,13.63
2022-10-13T04:31:43.913Z,13.98
2022-10-13T04:32:15.874Z,15.43
2022-10-13T04:32:47.642Z,14.15
2022-10-13T04:33:20.131Z,13.95
2022-10-13T04:33:53.119Z,15.88
2022-10-13T04:34:24.986Z,12.63
2022-10-13T04:34:56.712Z,14.95
2022-10-13T04:35:28.925Z,14.38
2022-10-13T04:36:04.536Z,14.77
2022-10-13T04:36:36.465Z,15.43
2022-10-13T04:37:08.287Z,13.25
2022-10-13T04:37:44.802Z,14.95
2022-10-13T04:38:17.400Z,14.80
2022-10-13T04:38:49.583Z,13.05
2022-10-13T04:39:21.405Z,13.57
2022-10-13T04:39:55.079Z,15.68
2022-10-13T04:40:28.165Z,15.23
2022-10-13T04:41:03.455Z,16.52
2022-10-13T04:41:35.236Z,13.77
2022-10-13T04:42:07.250Z,15.98
2022-10-13T04:42:42.982Z,13.65
2022-10-13T04:43:15.823Z,14.20
2022-10-13T04:43:49.616Z,16.13
2022-10-13T04:44:21.881Z,12.02
2022-10-13T04:44:53.748Z,15.18
2022-10-13T04:45:26.670Z,13.23
2022-10-13T04:46:07.398Z,13.82
2022-10-13T04:47:10.863Z,14.77
2022-10-13T04:47:42.884Z,14.52
2022-10-13T04:48:14.819Z,13.15
2022-10-13T04:48:47.156Z,12.50
2022-10-13T04:49:19.165Z,14.80
2022-10-13T04:49:50.969Z,13.02
2022-10-13T04:50:22.789Z,15.70
2022-10-13T04:51:09.002Z,15.00
2022-10-13T04:51:40.840Z,15.55
2022-10-13T04:52:13.056Z,13.85
2022-10-13T04:52:53.015Z,12.50
2022-10-13T04:53:24.796Z,11.52
2022-10-13T04:53:58.713Z,11.50
2022-10-13T04:54:30.431Z,11.88
2022-10-13T04:55:03.031Z,15.32
2022-10-13T04:55:37.614Z,17.35
2022-10-13T04:56:15.262Z,14.15
2022-10-13T04:56:47.148Z,15.35
2022-10-13T04:57:18.921Z,15.38
2022-10-13T04:57:50.692Z,16.52
2022-10-13T04:58:22.785Z,13.60
2022-10-13T04:58:54.666Z,13.05
2022-10-13T04:59:26.630Z,15.00
2022-10-13T04:59:58.603Z,14.93
2022-10-13T05:00:30.992Z,14.05
2022-10-13T05:01:05.067Z,13.98
2022-10-13T05:01:37.274Z,16.65
2022-10-13T05:02:11.656Z,14.43
2022-10-13T05:02:43.531Z,13.88
2022-10-13T05:03:15.362Z,15.88
2022-10-13T05:03:47.161Z,15.23
2022-10-13T05:04:18.989Z,12.68
2022-10-13T05:04:50.882Z,16.20
2022-10-13T05:05:24.421Z,15.20
2022-10-13T05:05:56.703Z,15.65
2022-10-13T05:06:58.937Z,14.15
2022-10-13T05:07:32.296Z,16.17
2022-10-13T05:08:04.220Z,14.23
2022-10-13T05:08:37.427Z,15.93
2022-10-13T05:09:16.117Z,14.15
2022-10-13T05:09:47.980Z,14.50
2022-10-13T05:10:20.299Z,12.65
2022-10-13T05:10:57.269Z,15.00
2022-10-13T05:11:29.733Z,13.13
2022-10-13T05:12:01.639Z,14.82
2022-10-13T05:12:33.533Z,12.63
2022-10-13T05:13:05.400Z,12.10
2022-10-13T05:13:37.898Z,13.05
2022-10-13T05:14:09.922Z,12.27
2022-10-13T05:14:41.668Z,16.95
2022-10-13T05:15:13.513Z,14.23
2022-10-13T05:15:45.282Z,12.95
2022-10-13T05:16:19.098Z,17.08
2022-10-13T05:16:50.934Z,12.95
2022-10-13T05:17:22.723Z,14.52
2022-10-13T05:17:54.790Z,15.93
2022-10-13T05:18:26.609Z,15.57
2022-10-13T05:18:58.450Z,12.48
2022-10-13T05:19:30.219Z,14.40
2022-10-13T05:20:03.226Z,13.60
2022-10-13T05:20:35.053Z,12.50
2022-10-13T05:21:08.007Z,13.70
2022-10-13T05:21:42.790Z,15.98
2022-10-13T05:22:14.551Z,13.77
2022-10-13T05:22:46.434Z,14.55
2022-10-13T05:23:18.319Z,15.30
2022-10-13T05:23:54.316Z,14.30
2022-10-13T05:24:36.355Z,14.38
2022-10-13T05:25:08.223Z,13.27
2022-10-13T05:25:40.067Z,11.65
2022-10-13T05:26:17.916Z,13.75
2022-10-13T05:26:49.759Z,13.32
2022-10-13T05:27:23.201Z,13.00
2022-10-13T05:27:54.943Z,14.82
2022-10-13T05:28:27.179Z,12.98
2022-10-13T05:29:00.135Z,13.40
2022-10-13T05:29:35.339Z,14.13
2022-10-13T05:30:07.877Z,13.13
2022-10-13T05:30:39.657Z,13.20
2022-10-13T05:31:11.639Z,14.10
2022-10-13T05:31:43.482Z,13.05
2022-10-13T05:32:15.202Z,11.95
2022-10-13T05:32:51.480Z,13.32
2022-10-13T05:33:26.778Z,13.90
2022-10-13T05:33:58.696Z,14.93
2022-10-13T05:34:30.600Z,12.48
2022-10-13T05:35:02.457Z,13.70
2022-10-13T05:35:34.904Z,14.18
2022-10-13T05:36:08.740Z,14.85
2022-10-13T05:36:42.459Z,15.15
2022-10-13T05:37:16.918Z,12.80
2022-10-13T05:37:48.785Z,13.23
2022-10-13T05:38:25.817Z,14.40
2022-10-13T05:39:02.076Z,13.82
2022-10-13T05:39:33.954Z,14.20
2022-10-13T05:40:06.220Z,14.05
2022-10-13T05:40:38.012Z,14.40
2022-10-13T05:41:12.971Z,15.75
2022-10-13T05:41:44.784Z,13.80
2022-10-13T05:42:25.242Z,13.20
2022-10-13T05:42:56.976Z,15.43
2022-10-13T05:43:30.737Z,14.02
2022-10-13T05:44:06.556Z,17.75
2022-10-13T05:44:38.436Z,13.32
2022-10-13T05:45:11.530Z,16.10
2022-10-13T05:45:43.301Z,14.82
2022-10-13T05:46:15.527Z,14.63
2022-10-13T05:46:47.267Z,13.73
2022-10-13T05:47:19.114Z,14.07
2022-10-13T05:47:50.992Z,12.70
2022-10-13T05:48:22.747Z,14.10
2022-10-13T05:48:55.168Z,13.35
2022-10-13T05:49:28.501Z,13.77
2022-10-13T05:50:00.325Z,15.07
2022-10-13T05:50:32.097Z,12.35
2022-10-13T05:51:10.136Z,13.82
2022-10-13T05:51:46.790Z,13.48
2022-10-13T05:52:19.067Z,15.75
2022-10-13T05:52:51.613Z,12.90
2022-10-13T05:53:27.405Z,12.75
2022-10-13T05:54:06.653Z,13.23
2022-10-13T05:54:51.007Z,13.43
2022-10-13T05:55:22.824Z,13.95
2022-10-13T05:55:57.058Z,12.13
2022-10-13T05:56:34.883Z,12.88
2022-10-13T05:57:14.203Z,13.20
2022-10-13T05:57:51.312Z,14.45
2022-10-13T05:58:25.198Z,13.10
2022-10-13T05:59:02.716Z,13.68
2022-10-13T05:59:39.164Z,14.27
2022-10-13T06:00:14.266Z,13.57
2022-10-13T06:00:47.069Z,11.45
2022-10-13T06:01:23.076Z,11.90
2022-10-13T06:01:55.387Z,11.57
2022-10-13T06:02:36.591Z,12.23
2022-10-13T06:03:13.875Z,12.85
2022-10-13T06:03:50.378Z,13.13
2022-10-13T06:04:27.184Z,16.20
2022-10-13T06:04:59.125Z,11.23
2022-10-13T06:05:32.836Z,12.45
2022-10-13T06:06:04.843Z,12.85
2022-10-13T06:06:36.975Z,12.43
2022-10-13T06:07:09.906Z,14.25
2022-10-13T06:07:43.908Z,13.68
2022-10-13T06:08:16.734Z,11.48
2022-10-13T06:08:51.036Z,11.85
2022-10-13T06:09:22.870Z,13.80
2022-10-13T06:09:54.718Z,11.77
2022-10-13T06:10:27.039Z,13.10
2022-10-13T06:10:59.100Z,11.82
2022-10-13T06:11:30.886Z,14.57
2022-10-13T06:12:02.656Z,12.15
2022-10-13T06:12:34.418Z,12.48
2022-10-13T06:13:06.560Z,15.65
2022-10-13T06:13:38.552Z,12.57
2022-10-13T06:14:10.367Z,16.88
2022-10-13T06:14:42.404Z,12.18
2022-10-13T06:15:16.832Z,12.25
2022-10-13T06:15:48.776Z,12.90
2022-10-13T06:16:20.662Z,12.27
2022-10-13T06:16:52.859Z,12.55
2022-10-13T06:17:24.685Z,13.90
2022-10-13T06:17:56.862Z,13.15
2022-10-13T06:18:28.971Z,12.30
2022-10-13T06:19:00.730Z,11.48
2022-10-13T06:19:33.015Z,13.48
2022-10-13T06:20:12.049Z,14.27
2022-10-13T06:20:44.132Z,11.38
2022-10-13T06:21:20.399Z,12.75
2022-10-13T06:21:52.420Z,12.93
2022-10-13T06:22:24.507Z,12.98
2022-10-13T06:22:57.164Z,13.13
2022-10-13T06:23:29.017Z,11.65
2022-10-13T06:24:01.377Z,14.18
2022-10-13T06:24:33.243Z,15.50
2022-10-13T06:25:07.302Z,13.32
2022-10-13T06:25:47.299Z,12.70
2022-10-13T06:26:19.129Z,11.40
2022-10-13T06:26:51.095Z,12.63
2022-10-13T06:27:22.862Z,14.60
2022-10-13T06:28:00.235Z,13.27
2022-10-13T06:28:32.048Z,12.00
2022-10-13T06:29:03.956Z,13.07
2022-10-13T06:29:36.088Z,15.20
2022-10-13T06:30:08.648Z,11.85
2022-10-13T06:30:43.428Z,10.70
2022-10-13T06:31:18.014Z,13.05
2022-10-13T06:31:49.787Z,14.73
2022-10-13T06:32:22.048Z,12.75
2022-10-13T06:32:55.842Z,12.73
2022-10-13T06:33:27.673Z,13.43
2022-10-13T06:33:59.658Z,13.60
2022-10-13T06:34:31.474Z,14.70
2022-10-13T06:35:03.793Z,13.73
2022-10-13T06:35:36.499Z,13.20
2022-10-13T06:36:08.591Z,16.15
2022-10-13T06:36:42.148Z,14.40
2022-10-13T06:37:17.013Z,14.32
2022-10-13T06:37:49.058Z,15.32
2022-10-13T06:38:20.969Z,14.65
2022-10-13T06:38:53.554Z,12.15
2022-10-13T06:39:26.543Z,12.57
2022-10-13T06:39:58.311Z,13.88
2022-10-13T06:40:30.183Z,13.88
2022-10-13T06:41:03.919Z,13.30
2022-10-13T06:41:37.331Z,13.43
2022-10-13T06:42:09.422Z,12.88
2022-10-13T06:42:48.892Z,15.60
2022-10-13T06:43:20.688Z,12.35
2022-10-13T06:43:55.963Z,12.23
2022-10-13T06:44:27.921Z,12.20
2022-10-13T06:45:06.123Z,12.00
2022-10-13T06:45:37.958Z,12.85
2022-10-13T06:46:10.839Z,13.77
2022-10-13T06:46:42.684Z,13.20
2022-10-13T06:47:14.739Z,14.32
2022-10-13T06:47:46.588Z,14.82
2022-10-13T06:48:18.385Z,15.63
2022-10-13T06:48:51.057Z,14.25
2022-10-13T06:49:23.909Z,13.63
2022-10-13T06:49:55.776Z,12.98
2022-10-13T06:50:27.715Z,11.75
2022-10-13T06:51:08.486Z,14.68
2022-10-13T06:51:41.629Z,14.00
2022-10-13T06:52:13.676Z,16.30
2022-10-13T06:52:45.727Z,15.00
2022-10-13T06:53:18.014Z,14.35
2022-10-13T06:53:49.831Z,15.82
2022-10-13T06:54:26.876Z,14.52
2022-10-13T06:54:58.606Z,14.27
2022-10-13T06:55:30.444Z,15.85
2022-10-13T06:56:05.698Z,13.30
2022-10-13T06:56:37.751Z,14.35
2022-10-13T06:57:15.550Z,12.90
2022-10-13T06:57:47.328Z,12.57
2022-10-13T06:58:19.217Z,14.10
2022-10-13T06:58:51.055Z,12.80
2022-10-13T06:59:23.145Z,12.82
2022-10-13T06:59:55.122Z,14.13
2022-10-13T07:00:27.241Z,13.82
2022-10-13T07:00:59.222Z,19.50
2022-10-13T07:01:31.062Z,14.15
2022-10-13T07:02:04.999Z,14.40
2022-10-13T07:02:36.965Z,12.82
2022-10-13T07:03:08.772Z,13.88
2022-10-13T07:03:41.017Z,14.57
2022-10-13T07:04:13.205Z,14.35
2022-10-13T07:04:46.872Z,12.10
2022-10-13T07:05:18.902Z,12.82
2022-10-13T07:05:50.825Z,13.95
2022-10-13T07:06:22.903Z,13.27
2022-10-13T07:06:55.894Z,11.98
2022-10-13T07:07:27.682Z,13.70
2022-10-13T07:08:01.315Z,12.52
2022-10-13T07:08:34.278Z,14.43
2022-10-13T07:09:07.600Z,15.85
2022-10-13T07:09:39.790Z,15.07
2022-10-13T07:10:11.546Z,13.02
2022-10-13T07:10:43.360Z,13.13
2022-10-13T07:11:16.617Z,15.15
2022-10-13T07:11:52.820Z,13.32
2022-10-13T07:12:24.688Z,12.25
2022-10-13T07:12:57.456Z,12.48
2022-10-13T07:13:32.391Z,12.35
2022-10-13T07:14:06.795Z,13.80
2022-10-13T07:14:40.487Z,12.57
2022-10-13T07:15:15.685Z,12.15
2022-10-13T07:15:47.483Z,14.90
2022-10-13T07:16:19.494Z,14.18
2022-10-13T07:16:51.293Z,14.88
2022-10-13T07:17:23.309Z,17.02
2022-10-13T07:17:55.443Z,10.80
2022-10-13T07:18:27.172Z,12.63
2022-10-13T07:18:58.934Z,12.48
2022-10-13T07:19:30.940Z,13.05
2022-10-13T07:20:07.196Z,12.15
2022-10-13T07:20:39.548Z,13.23
2022-10-13T07:21:11.382Z,16.45
2022-10-13T07:21:43.226Z,16.13
2022-10-13T07:22:15.772Z,16.65
2022-10-13T07:22:47.893Z,12.98
2022-10-13T07:23:20.475Z,12.25
2022-10-13T07:23:52.303Z,14.15
2022-10-13T07:24:25.203Z,14.35
2022-10-13T07:24:57.083Z,17.15
2022-10-13T07:25:28.936Z,12.50
2022-10-13T07:26:01.845Z,17.25
2022-10-13T07:26:34.085Z,14.68
2022-10-13T07:27:18.919Z,13.57
2022-10-13T07:27:50.710Z,14.52
2022-10-13T07:28:24.215Z,14.13